sensor_id;sensor_type;location;lat;lon;timestamp;pressure;altitude;pressure_sealevel;temperature;humidity
17362;BME280;8798;51.938;4.348;2022-12-05T00:01:44;102152.47;;;5.03;76.20
17362;BME280;8798;51.938;4.348;2022-12-05T00:04:13;102155.06;;;5.05;76.26
17362;BME280;8798;51.938;4.348;2022-12-05T00:06:41;102157.63;;;5.06;75.61
17362;BME280;8798;51.938;4.348;2022-12-05T00:09:12;102154.13;;;5.06;75.88
17362;BME280;8798;51.938;4.348;2022-12-05T00:11:41;102164.69;;;5.07;75.63
17362;BME280;8798;51.938;4.348;2022-12-05T00:14:10;102155.81;;;5.07;76.30
17362;BME280;8798;51.938;4.348;2022-12-05T00:16:40;102146.97;;;5.06;76.25
17362;BME280;8798;51.938;4.348;2022-12-05T00:19:12;102147.84;;;5.07;76.37
17362;BME280;8798;51.938;4.348;2022-12-05T00:21:40;102152.25;;;5.08;76.38
17362;BME280;8798;51.938;4.348;2022-12-05T00:24:11;102155.75;;;5.08;76.11
17362;BME280;8798;51.938;4.348;2022-12-05T00:26:39;102148.63;;;5.09;76.45
17362;BME280;8798;51.938;4.348;2022-12-05T00:29:07;102152.13;;;5.09;76.51
17362;BME280;8798;51.938;4.348;2022-12-05T00:31:35;102153.88;;;5.10;76.45
17362;BME280;8798;51.938;4.348;2022-12-05T00:34:03;102170.47;;;5.15;76.31
17362;BME280;8798;51.938;4.348;2022-12-05T00:36:34;102172.16;;;5.16;76.59
17362;BME280;8798;51.938;4.348;2022-12-05T00:39:04;102172.94;;;5.18;76.11
17362;BME280;8798;51.938;4.348;2022-12-05T00:41:34;102183.53;;;5.20;76.40
17362;BME280;8798;51.938;4.348;2022-12-05T00:44:02;102179.06;;;5.21;76.37
17362;BME280;8798;51.938;4.348;2022-12-05T00:46:32;102185.16;;;5.23;75.92
17362;BME280;8798;51.938;4.348;2022-12-05T00:49:01;102188.59;;;5.25;76.32
17362;BME280;8798;51.938;4.348;2022-12-05T00:51:34;102196.50;;;5.26;76.33
17362;BME280;8798;51.938;4.348;2022-12-05T00:54:05;102187.66;;;5.26;76.20
17362;BME280;8798;51.938;4.348;2022-12-05T00:56:33;102192.13;;;5.25;77.04
17362;BME280;8798;51.938;4.348;2022-12-05T00:59:02;102185.84;;;5.26;76.51
17362;BME280;8798;51.938;4.348;2022-12-05T01:01:31;102184.91;;;5.27;76.95
17362;BME280;8798;51.938;4.348;2022-12-05T01:04:01;102199.00;;;5.29;76.06
17362;BME280;8798;51.938;4.348;2022-12-05T01:06:31;102193.59;;;5.31;76.71
17362;BME280;8798;51.938;4.348;2022-12-05T01:08:59;102198.84;;;5.32;76.34
17362;BME280;8798;51.938;4.348;2022-12-05T01:11:28;102199.69;;;5.33;76.48
17362;BME280;8798;51.938;4.348;2022-12-05T01:13:56;102202.28;;;5.34;76.83
17362;BME280;8798;51.938;4.348;2022-12-05T01:16:26;102205.81;;;5.35;76.69
17362;BME280;8798;51.938;4.348;2022-12-05T01:18:55;102213.63;;;5.38;76.51
17362;BME280;8798;51.938;4.348;2022-12-05T01:21:24;102212.69;;;5.39;77.07
17362;BME280;8798;51.938;4.348;2022-12-05T01:23:53;102212.59;;;5.41;76.71
17362;BME280;8798;51.938;4.348;2022-12-05T01:26:22;102217.06;;;5.40;76.60
17362;BME280;8798;51.938;4.348;2022-12-05T01:28:50;102210.78;;;5.41;76.37
17362;BME280;8798;51.938;4.348;2022-12-05T01:31:21;102205.44;;;5.41;76.43
17362;BME280;8798;51.938;4.348;2022-12-05T01:33:50;102209.00;;;5.42;76.52
17362;BME280;8798;51.938;4.348;2022-12-05T01:36:19;102204.53;;;5.42;76.28
17362;BME280;8798;51.938;4.348;2022-12-05T01:38:47;102208.03;;;5.43;77.44
17362;BME280;8798;51.938;4.348;2022-12-05T01:41:24;102203.66;;;5.42;76.63
17362;BME280;8798;51.938;4.348;2022-12-05T01:43:59;102203.50;;;5.45;77.24
17362;BME280;8798;51.938;4.348;2022-12-05T01:46:28;102202.63;;;5.44;76.56
17362;BME280;8798;51.938;4.348;2022-12-05T01:49:00;102203.50;;;5.45;77.14
17362;BME280;8798;51.938;4.348;2022-12-05T01:51:29;102200.81;;;5.45;76.67
17362;BME280;8798;51.938;4.348;2022-12-05T01:53:57;102199.03;;;5.45;76.82
17362;BME280;8798;51.938;4.348;2022-12-05T01:56:27;102189.22;;;5.46;76.93
17362;BME280;8798;51.938;4.348;2022-12-05T01:58:55;102181.41;;;5.43;76.79
17362;BME280;8798;51.938;4.348;2022-12-05T02:01:23;102181.41;;;5.43;76.84
17362;BME280;8798;51.938;4.348;2022-12-05T02:03:53;102179.59;;;5.43;77.27
17362;BME280;8798;51.938;4.348;2022-12-05T02:06:23;102178.72;;;5.43;77.18
17362;BME280;8798;51.938;4.348;2022-12-05T02:08:52;102184.00;;;5.44;77.44
17362;BME280;8798;51.938;4.348;2022-12-05T02:11:21;102183.88;;;5.46;76.67
17362;BME280;8798;51.938;4.348;2022-12-05T02:14:02;102185.63;;;5.47;77.62
17362;BME280;8798;51.938;4.348;2022-12-05T02:16:42;102177.69;;;5.45;76.99
17362;BME280;8798;51.938;4.348;2022-12-05T02:22:33;102185.53;;;5.48;76.73
17362;BME280;8798;51.938;4.348;2022-12-05T02:25:16;102184.59;;;5.49;77.10
17362;BME280;8798;51.938;4.348;2022-12-05T02:28:13;102184.47;;;5.51;77.17
17362;BME280;8798;51.938;4.348;2022-12-05T02:30:54;102195.91;;;5.53;76.92
17362;BME280;8798;51.938;4.348;2022-12-05T02:33:28;102197.66;;;5.54;77.60
17362;BME280;8798;51.938;4.348;2022-12-05T02:36:06;102190.53;;;5.54;77.59
17362;BME280;8798;51.938;4.348;2022-12-05T02:38:40;102201.06;;;5.56;76.88
17362;BME280;8798;51.938;4.348;2022-12-05T02:41:15;102195.66;;;5.57;76.86
17362;BME280;8798;51.938;4.348;2022-12-05T02:43:49;102200.03;;;5.58;77.50
17362;BME280;8798;51.938;4.348;2022-12-05T02:46:21;102204.44;;;5.59;77.38
17362;BME280;8798;51.938;4.348;2022-12-05T02:48:52;102220.25;;;5.63;77.25
17362;BME280;8798;51.938;4.348;2022-12-05T02:51:24;102222.75;;;5.66;76.90
17362;BME280;8798;51.938;4.348;2022-12-05T02:53:56;102216.50;;;5.67;77.48
17362;BME280;8798;51.938;4.348;2022-12-05T02:56:27;102227.81;;;5.70;77.34
17362;BME280;8798;51.938;4.348;2022-12-05T02:58:56;102229.63;;;5.70;77.43
17362;BME280;8798;51.938;4.348;2022-12-05T03:01:28;102226.97;;;5.70;76.99
17362;BME280;8798;51.938;4.348;2022-12-05T03:03:58;102223.34;;;5.71;76.76
17362;BME280;8798;51.938;4.348;2022-12-05T03:06:29;102218.13;;;5.69;77.60
17362;BME280;8798;51.938;4.348;2022-12-05T03:09:00;102211.94;;;5.69;77.29
17362;BME280;8798;51.938;4.348;2022-12-05T03:11:37;102212.78;;;5.69;77.17
17362;BME280;8798;51.938;4.348;2022-12-05T03:14:10;102201.28;;;5.69;77.57
17362;BME280;8798;51.938;4.348;2022-12-05T03:16:43;102205.66;;;5.70;76.99
17362;BME280;8798;51.938;4.348;2022-12-05T03:19:17;102205.66;;;5.70;77.09
17362;BME280;8798;51.938;4.348;2022-12-05T03:21:51;102211.75;;;5.72;77.15
17362;BME280;8798;51.938;4.348;2022-12-05T03:24:21;102201.09;;;5.72;77.64
17362;BME280;8798;51.938;4.348;2022-12-05T03:26:56;102208.13;;;5.73;77.64
17362;BME280;8798;51.938;4.348;2022-12-05T03:29:32;102205.47;;;5.73;77.88
17362;BME280;8798;51.938;4.348;2022-12-05T03:32:06;102203.66;;;5.73;78.20
17362;BME280;8798;51.938;4.348;2022-12-05T03:34:42;102210.63;;;5.76;77.83
17362;BME280;8798;51.938;4.348;2022-12-05T03:37:18;102206.25;;;5.75;77.85
17362;BME280;8798;51.938;4.348;2022-12-05T03:39:53;102211.41;;;5.78;77.34
17362;BME280;8798;51.938;4.348;2022-12-05T03:42:29;102214.00;;;5.79;77.89
17362;BME280;8798;51.938;4.348;2022-12-05T03:45:00;102214.84;;;5.80;77.07
17362;BME280;8798;51.938;4.348;2022-12-05T03:47:36;102221.03;;;5.80;77.32
17362;BME280;8798;51.938;4.348;2022-12-05T03:50:10;102213.03;;;5.80;77.81
17362;BME280;8798;51.938;4.348;2022-12-05T03:52:43;102203.22;;;5.81;78.09
17362;BME280;8798;51.938;4.348;2022-12-05T03:55:35;102205.88;;;5.81;77.94
17362;BME280;8798;51.938;4.348;2022-12-05T03:58:07;102208.56;;;5.81;77.48
17362;BME280;8798;51.938;4.348;2022-12-05T04:00:39;102202.34;;;5.80;77.51
17362;BME280;8798;51.938;4.348;2022-12-05T04:03:13;102201.44;;;5.81;78.29
17362;BME280;8798;51.938;4.348;2022-12-05T04:05:47;102192.56;;;5.81;78.43
17362;BME280;8798;51.938;4.348;2022-12-05T04:08:19;102195.22;;;5.81;78.38
17362;BME280;8798;51.938;4.348;2022-12-05T04:10:50;102192.47;;;5.82;78.39
17362;BME280;8798;51.938;4.348;2022-12-05T04:13:23;102211.91;;;5.85;78.61
17362;BME280;8798;51.938;4.348;2022-12-05T04:15:55;102203.84;;;5.86;77.87
17362;BME280;8798;51.938;4.348;2022-12-05T04:18:46;102204.78;;;5.85;78.30
17362;BME280;8798;51.938;4.348;2022-12-05T04:21:18;102192.41;;;5.84;78.04
17362;BME280;8798;51.938;4.348;2022-12-05T04:24:08;102195.06;;;5.84;77.56
17362;BME280;8798;51.938;4.348;2022-12-05T04:27:14;102193.25;;;5.85;77.96
17362;BME280;8798;51.938;4.348;2022-12-05T04:29:53;102194.97;;;5.86;78.64
17362;BME280;8798;51.938;4.348;2022-12-05T04:32:25;102193.19;;;5.86;78.30
17362;BME280;8798;51.938;4.348;2022-12-05T04:35:00;102194.03;;;5.87;77.59
17362;BME280;8798;51.938;4.348;2022-12-05T04:37:31;102193.19;;;5.86;78.54
17362;BME280;8798;51.938;4.348;2022-12-05T04:40:08;102192.22;;;5.87;77.51
17362;BME280;8798;51.938;4.348;2022-12-05T04:42:40;102190.41;;;5.88;77.96
17362;BME280;8798;51.938;4.348;2022-12-05T04:45:10;102200.88;;;5.91;77.76
17362;BME280;8798;51.938;4.348;2022-12-05T04:47:43;102210.50;;;5.93;78.72
17362;BME280;8798;51.938;4.348;2022-12-05T04:50:15;102216.66;;;5.95;78.02
17362;BME280;8798;51.938;4.348;2022-12-05T04:52:47;102214.84;;;5.96;78.21
17362;BME280;8798;51.938;4.348;2022-12-05T04:55:19;102201.63;;;5.94;78.33
17362;BME280;8798;51.938;4.348;2022-12-05T04:57:56;102206.84;;;5.96;77.63
17362;BME280;8798;51.938;4.348;2022-12-05T05:00:27;102217.44;;;5.97;77.63
17362;BME280;8798;51.938;4.348;2022-12-05T05:03:02;102216.50;;;5.98;77.89
17362;BME280;8798;51.938;4.348;2022-12-05T05:05:34;102222.59;;;6.00;78.49
17362;BME280;8798;51.938;4.348;2022-12-05T05:08:02;102212.88;;;5.99;78.13
17362;BME280;8798;51.938;4.348;2022-12-05T05:10:34;102210.22;;;5.99;78.42
17362;BME280;8798;51.938;4.348;2022-12-05T05:13:04;102208.41;;;6.00;78.76
17362;BME280;8798;51.938;4.348;2022-12-05T05:15:32;102204.03;;;5.99;78.62
17362;BME280;8798;51.938;4.348;2022-12-05T05:18:00;102204.88;;;5.99;78.54
17362;BME280;8798;51.938;4.348;2022-12-05T05:20:27;102207.47;;;6.01;78.24
17362;BME280;8798;51.938;4.348;2022-12-05T05:22:57;102203.00;;;6.01;77.90
17362;BME280;8798;51.938;4.348;2022-12-05T05:25:25;102211.78;;;6.03;78.47
17362;BME280;8798;51.938;4.348;2022-12-05T05:27:54;102223.09;;;6.07;79.10
17362;BME280;8798;51.938;4.348;2022-12-05T05:30:23;102233.59;;;6.10;79.02
17362;BME280;8798;51.938;4.348;2022-12-05T05:32:51;102230.06;;;6.10;79.09
17362;BME280;8798;51.938;4.348;2022-12-05T05:35:19;102238.00;;;6.11;78.57
17362;BME280;8798;51.938;4.348;2022-12-05T05:37:48;102236.97;;;6.14;78.64
17362;BME280;8798;51.938;4.348;2022-12-05T05:40:17;102241.44;;;6.13;79.11
17362;BME280;8798;51.938;4.348;2022-12-05T05:42:47;102244.78;;;6.17;78.62
17362;BME280;8798;51.938;4.348;2022-12-05T05:45:16;102254.41;;;6.19;78.97
17362;BME280;8798;51.938;4.348;2022-12-05T05:47:44;102259.66;;;6.21;78.22
17362;BME280;8798;51.938;4.348;2022-12-05T05:50:12;102268.34;;;6.24;78.09
17362;BME280;8798;51.938;4.348;2022-12-05T05:52:47;102272.63;;;6.27;78.47
17362;BME280;8798;51.938;4.348;2022-12-05T05:55:15;102285.91;;;6.29;78.51
17362;BME280;8798;51.938;4.348;2022-12-05T05:57:44;102287.53;;;6.31;78.51
17362;BME280;8798;51.938;4.348;2022-12-05T06:00:13;102287.53;;;6.31;78.55
17362;BME280;8798;51.938;4.348;2022-12-05T06:02:41;102279.59;;;6.30;78.27
17362;BME280;8798;51.938;4.348;2022-12-05T06:05:09;102275.13;;;6.30;79.10
17362;BME280;8798;51.938;4.348;2022-12-05T06:07:37;102273.34;;;6.31;78.58
17362;BME280;8798;51.938;4.348;2022-12-05T06:10:06;102275.91;;;6.32;78.79
17362;BME280;8798;51.938;4.348;2022-12-05T06:12:34;102284.69;;;6.34;79.31
17362;BME280;8798;51.938;4.348;2022-12-05T06:15:04;102285.47;;;6.36;78.39
17362;BME280;8798;51.938;4.348;2022-12-05T06:17:32;102287.09;;;6.39;78.87
17362;BME280;8798;51.938;4.348;2022-12-05T06:20:00;102290.69;;;6.38;78.82
17362;BME280;8798;51.938;4.348;2022-12-05T06:22:28;102275.63;;;6.37;78.48
17362;BME280;8798;51.938;4.348;2022-12-05T06:24:57;102272.97;;;6.37;78.95
17362;BME280;8798;51.938;4.348;2022-12-05T06:27:24;102278.31;;;6.37;79.13
17362;BME280;8798;51.938;4.348;2022-12-05T06:29:52;102276.41;;;6.39;78.24
17362;BME280;8798;51.938;4.348;2022-12-05T06:32:22;102285.19;;;6.41;79.15
17362;BME280;8798;51.938;4.348;2022-12-05T06:34:50;102279.75;;;6.42;79.15
17362;BME280;8798;51.938;4.348;2022-12-05T06:37:17;102298.28;;;6.45;78.54
17362;BME280;8798;51.938;4.348;2022-12-05T06:39:45;102294.66;;;6.46;78.88
17362;BME280;8798;51.938;4.348;2022-12-05T06:42:13;102300.84;;;6.47;78.87
17362;BME280;8798;51.938;4.348;2022-12-05T06:44:41;102299.81;;;6.50;79.39
17362;BME280;8798;51.938;4.348;2022-12-05T06:47:09;102299.81;;;6.50;78.32
17362;BME280;8798;51.938;4.348;2022-12-05T06:49:38;102298.00;;;6.50;78.95
17362;BME280;8798;51.938;4.348;2022-12-05T06:52:06;102297.91;;;6.52;79.38
17362;BME280;8798;51.938;4.348;2022-12-05T06:54:35;102297.06;;;6.51;78.87
17362;BME280;8798;51.938;4.348;2022-12-05T06:57:03;102281.97;;;6.50;79.48
17362;BME280;8798;51.938;4.348;2022-12-05T06:59:33;102289.06;;;6.51;79.34
17362;BME280;8798;51.938;4.348;2022-12-05T07:02:01;102289.91;;;6.52;79.36
17362;BME280;8798;51.938;4.348;2022-12-05T07:04:28;102286.28;;;6.53;79.53
17362;BME280;8798;51.938;4.348;2022-12-05T07:06:57;102288.09;;;6.52;79.95
17362;BME280;8798;51.938;4.348;2022-12-05T07:09:28;102279.16;;;6.53;79.27
17362;BME280;8798;51.938;4.348;2022-12-05T07:12:09;102288.00;;;6.54;79.17
17362;BME280;8798;51.938;4.348;2022-12-05T07:14:38;102284.38;;;6.55;79.27
17362;BME280;8798;51.938;4.348;2022-12-05T07:17:13;102287.81;;;6.57;78.48
17362;BME280;8798;51.938;4.348;2022-12-05T07:19:41;102293.94;;;6.59;79.53
17362;BME280;8798;51.938;4.348;2022-12-05T07:22:10;102291.28;;;6.59;79.05
17362;BME280;8798;51.938;4.348;2022-12-05T07:24:41;102291.28;;;6.59;79.34
17362;BME280;8798;51.938;4.348;2022-12-05T07:27:09;102286.78;;;6.59;78.56
17362;BME280;8798;51.938;4.348;2022-12-05T07:29:37;102284.22;;;6.58;79.14
17362;BME280;8798;51.938;4.348;2022-12-05T07:32:05;102280.59;;;6.59;79.08
17362;BME280;8798;51.938;4.348;2022-12-05T07:34:34;102271.72;;;6.58;79.48
17362;BME280;8798;51.938;4.348;2022-12-05T07:37:02;102280.59;;;6.59;79.18
17362;BME280;8798;51.938;4.348;2022-12-05T07:39:31;102284.97;;;6.60;78.60
17362;BME280;8798;51.938;4.348;2022-12-05T07:41:59;102289.25;;;6.62;79.15
17362;BME280;8798;51.938;4.348;2022-12-05T07:44:26;102300.72;;;6.64;80.06
17362;BME280;8798;51.938;4.348;2022-12-05T07:46:54;102304.16;;;6.66;80.46
17362;BME280;8798;51.938;4.348;2022-12-05T07:49:22;102305.78;;;6.69;80.11
17362;BME280;8798;51.938;4.348;2022-12-05T07:51:50;102313.63;;;6.72;79.84
17362;BME280;8798;51.938;4.348;2022-12-05T07:54:18;102314.50;;;6.73;78.88
17362;BME280;8798;51.938;4.348;2022-12-05T07:56:47;102311.84;;;6.73;79.97
17362;BME280;8798;51.938;4.348;2022-12-05T07:59:15;102313.53;;;6.74;79.14
17362;BME280;8798;51.938;4.348;2022-12-05T08:01:43;102316.13;;;6.75;79.42
17362;BME280;8798;51.938;4.348;2022-12-05T08:04:11;102321.34;;;6.77;79.90
17362;BME280;8798;51.938;4.348;2022-12-05T08:06:41;102315.94;;;6.78;79.32
17362;BME280;8798;51.938;4.348;2022-12-05T08:09:09;102325.66;;;6.79;80.03
17362;BME280;8798;51.938;4.348;2022-12-05T08:11:37;102324.81;;;6.79;80.15
17362;BME280;8798;51.938;4.348;2022-12-05T08:14:07;102314.13;;;6.79;79.59
17362;BME280;8798;51.938;4.348;2022-12-05T08:16:34;102316.78;;;6.79;79.46
17362;BME280;8798;51.938;4.348;2022-12-05T08:19:05;102319.38;;;6.80;79.80
17362;BME280;8798;51.938;4.348;2022-12-05T08:21:34;102315.75;;;6.81;79.70
17362;BME280;8798;51.938;4.348;2022-12-05T08:24:03;102317.47;;;6.82;79.68
17362;BME280;8798;51.938;4.348;2022-12-05T08:26:31;102313.09;;;6.81;79.48
17362;BME280;8798;51.938;4.348;2022-12-05T08:29:00;102313.84;;;6.83;80.18
17362;BME280;8798;51.938;4.348;2022-12-05T08:31:32;102327.78;;;6.88;80.65
17362;BME280;8798;51.938;4.348;2022-12-05T08:34:00;102333.91;;;6.91;79.79
17362;BME280;8798;51.938;4.348;2022-12-05T08:36:29;102339.13;;;6.92;79.77
17362;BME280;8798;51.938;4.348;2022-12-05T08:38:58;102338.28;;;6.92;79.74
17362;BME280;8798;51.938;4.348;2022-12-05T08:41:27;102345.38;;;6.93;80.27
17362;BME280;8798;51.938;4.348;2022-12-05T08:43:56;102343.44;;;6.95;79.88
17362;BME280;8798;51.938;4.348;2022-12-05T08:46:24;102347.84;;;6.96;79.95
17362;BME280;8798;51.938;4.348;2022-12-05T08:48:54;102360.16;;;6.98;80.01
17362;BME280;8798;51.938;4.348;2022-12-05T08:51:22;102352.06;;;7.00;80.39
17362;BME280;8798;51.938;4.348;2022-12-05T08:53:50;102362.66;;;7.01;79.85
17362;BME280;8798;51.938;4.348;2022-12-05T08:56:18;102367.06;;;7.02;80.53
17362;BME280;8798;51.938;4.348;2022-12-05T08:58:52;102362.56;;;7.03;80.60
17362;BME280;8798;51.938;4.348;2022-12-05T09:01:28;102371.34;;;7.05;80.35
17362;BME280;8798;51.938;4.348;2022-12-05T09:03:59;102366.00;;;7.05;79.64
17362;BME280;8798;51.938;4.348;2022-12-05T09:06:28;102360.56;;;7.06;80.50
17362;BME280;8798;51.938;4.348;2022-12-05T09:08:57;102360.66;;;7.05;79.71
17362;BME280;8798;51.938;4.348;2022-12-05T09:11:27;102372.09;;;7.07;79.66
17362;BME280;8798;51.938;4.348;2022-12-05T09:13:56;102364.09;;;7.07;80.55
17362;BME280;8798;51.938;4.348;2022-12-05T09:16:26;102366.59;;;7.10;80.06
17362;BME280;8798;51.938;4.348;2022-12-05T09:19:04;102377.09;;;7.13;79.53
17362;BME280;8798;51.938;4.348;2022-12-05T09:21:32;102388.56;;;7.15;80.34
17362;BME280;8798;51.938;4.348;2022-12-05T09:24:00;102379.69;;;7.15;80.51
17362;BME280;8798;51.938;4.348;2022-12-05T09:26:28;102382.38;;;7.15;79.48
17362;BME280;8798;51.938;4.348;2022-12-05T09:28:56;102379.59;;;7.16;80.82
17362;BME280;8798;51.938;4.348;2022-12-05T09:31:25;102376.91;;;7.16;80.02
17362;BME280;8798;51.938;4.348;2022-12-05T09:33:55;102376.81;;;7.18;80.33
17362;BME280;8798;51.938;4.348;2022-12-05T09:36:26;102381.31;;;7.17;80.33
17362;BME280;8798;51.938;4.348;2022-12-05T09:38:55;102367.06;;;7.17;80.52
17362;BME280;8798;51.938;4.348;2022-12-05T09:41:35;102369.66;;;7.18;80.58
17362;BME280;8798;51.938;4.348;2022-12-05T09:44:35;102371.38;;;7.19;80.20
17362;BME280;8798;51.938;4.348;2022-12-05T09:47:12;102367.00;;;7.18;80.38
17362;BME280;8798;51.938;4.348;2022-12-05T09:49:46;102368.69;;;7.19;80.48
17362;BME280;8798;51.938;4.348;2022-12-05T09:52:23;102363.34;;;7.19;80.83
17362;BME280;8798;51.938;4.348;2022-12-05T09:54:52;102365.94;;;7.21;80.34
17362;BME280;8798;51.938;4.348;2022-12-05T09:57:28;102367.66;;;7.22;79.92
17362;BME280;8798;51.938;4.348;2022-12-05T10:00:00;102372.91;;;7.23;79.95
17362;BME280;8798;51.938;4.348;2022-12-05T10:02:36;102376.38;;;7.25;80.28
17362;BME280;8798;51.938;4.348;2022-12-05T10:05:11;102381.59;;;7.27;80.71
17362;BME280;8798;51.938;4.348;2022-12-05T10:07:50;102384.19;;;7.28;80.43
17362;BME280;8798;51.938;4.348;2022-12-05T10:10:26;102392.97;;;7.30;80.85
17362;BME280;8798;51.938;4.348;2022-12-05T10:13:15;102403.47;;;7.33;80.67
17362;BME280;8798;51.938;4.348;2022-12-05T10:15:47;102393.66;;;7.34;80.68
17362;BME280;8798;51.938;4.348;2022-12-05T10:18:32;102393.66;;;7.34;80.03
17362;BME280;8798;51.938;4.348;2022-12-05T10:21:11;102389.25;;;7.33;80.33
17362;BME280;8798;51.938;4.348;2022-12-05T10:23:48;102391.09;;;7.32;80.32
17362;BME280;8798;51.938;4.348;2022-12-05T10:26:27;102390.97;;;7.34;80.11
17362;BME280;8798;51.938;4.348;2022-12-05T10:29:00;102390.81;;;7.37;80.97
17362;BME280;8798;51.938;4.348;2022-12-05T10:31:31;102397.88;;;7.38;80.21
17362;BME280;8798;51.938;4.348;2022-12-05T10:34:03;102397.78;;;7.40;79.90
17362;BME280;8798;51.938;4.348;2022-12-05T10:36:32;102396.81;;;7.41;80.63
17362;BME280;8798;51.938;4.348;2022-12-05T10:39:02;102402.16;;;7.41;80.45
17362;BME280;8798;51.938;4.348;2022-12-05T10:41:36;102394.06;;;7.42;80.15
17362;BME280;8798;51.938;4.348;2022-12-05T10:44:04;102400.25;;;7.43;80.29
17362;BME280;8798;51.938;4.348;2022-12-05T10:46:32;102392.31;;;7.41;80.70
17362;BME280;8798;51.938;4.348;2022-12-05T10:49:00;102386.97;;;7.41;80.79
17362;BME280;8798;51.938;4.348;2022-12-05T10:51:29;102397.59;;;7.43;80.81
17362;BME280;8798;51.938;4.348;2022-12-05T10:54:13;102400.19;;;7.44;80.53
17362;BME280;8798;51.938;4.348;2022-12-05T10:56:43;102386.81;;;7.44;80.16
17362;BME280;8798;51.938;4.348;2022-12-05T10:59:14;102393.78;;;7.47;80.23
17362;BME280;8798;51.938;4.348;2022-12-05T11:01:45;102394.66;;;7.47;80.02
17362;BME280;8798;51.938;4.348;2022-12-05T11:04:23;102397.19;;;7.49;80.10
17362;BME280;8798;51.938;4.348;2022-12-05T11:06:55;102401.63;;;7.50;81.18
17362;BME280;8798;51.938;4.348;2022-12-05T11:09:27;102399.72;;;7.52;80.75
17362;BME280;8798;51.938;4.348;2022-12-05T11:12:02;102386.44;;;7.50;80.26
17362;BME280;8798;51.938;4.348;2022-12-05T11:14:30;102397.13;;;7.50;80.72
17362;BME280;8798;51.938;4.348;2022-12-05T11:17:01;102388.13;;;7.51;80.19
17362;BME280;8798;51.938;4.348;2022-12-05T11:19:31;102385.47;;;7.51;80.42
17362;BME280;8798;51.938;4.348;2022-12-05T11:21:59;102382.72;;;7.53;81.22
17362;BME280;8798;51.938;4.348;2022-12-05T11:24:31;102387.09;;;7.54;80.84
17362;BME280;8798;51.938;4.348;2022-12-05T11:27:00;102384.41;;;7.54;80.82
17362;BME280;8798;51.938;4.348;2022-12-05T11:29:53;102360.53;;;7.51;80.42
17362;BME280;8798;51.938;4.348;2022-12-05T11:32:23;102359.69;;;7.50;80.18
17362;BME280;8798;51.938;4.348;2022-12-05T11:34:57;102362.38;;;7.50;80.78
17362;BME280;8798;51.938;4.348;2022-12-05T11:37:31;102364.06;;;7.51;80.16
17362;BME280;8798;51.938;4.348;2022-12-05T11:40:12;102359.63;;;7.52;80.26
17362;BME280;8798;51.938;4.348;2022-12-05T11:42:50;102362.38;;;7.50;80.23
17362;BME280;8798;51.938;4.348;2022-12-05T11:45:37;102364.00;;;7.53;81.08
17362;BME280;8798;51.938;4.348;2022-12-05T11:48:21;102368.38;;;7.54;81.04
17362;BME280;8798;51.938;4.348;2022-12-05T11:51:06;102358.56;;;7.54;80.33
17362;BME280;8798;51.938;4.348;2022-12-05T11:54:02;102358.56;;;7.54;81.06
17362;BME280;8798;51.938;4.348;2022-12-05T11:56:42;102364.75;;;7.55;81.03
17362;BME280;8798;51.938;4.348;2022-12-05T11:59:46;102368.22;;;7.57;80.90
17362;BME280;8798;51.938;4.348;2022-12-05T12:02:26;102354.84;;;7.57;81.42
17362;BME280;8798;51.938;4.348;2022-12-05T12:05:04;102357.50;;;7.57;80.67
17362;BME280;8798;51.938;4.348;2022-12-05T12:07:47;102364.38;;;7.61;80.65
17362;BME280;8798;51.938;4.348;2022-12-05T12:10:22;102378.50;;;7.63;80.56
17362;BME280;8798;51.938;4.348;2022-12-05T12:13:04;102367.94;;;7.62;81.38
17362;BME280;8798;51.938;4.348;2022-12-05T12:15:54;102379.38;;;7.64;81.56
17362;BME280;8798;51.938;4.348;2022-12-05T12:18:51;102367.72;;;7.65;81.30
17362;BME280;8798;51.938;4.348;2022-12-05T12:21:25;102375.63;;;7.66;80.46
17362;BME280;8798;51.938;4.348;2022-12-05T12:24:10;102381.75;;;7.68;80.98
17362;BME280;8798;51.938;4.348;2022-12-05T12:26:48;102381.56;;;7.71;80.90
17362;BME280;8798;51.938;4.348;2022-12-05T12:29:32;102392.25;;;7.71;81.32
17362;BME280;8798;51.938;4.348;2022-12-05T12:32:14;102378.16;;;7.69;80.86
17362;BME280;8798;51.938;4.348;2022-12-05T12:34:57;102381.69;;;7.70;81.13
17362;BME280;8798;51.938;4.348;2022-12-05T12:37:35;102390.34;;;7.73;81.28
17362;BME280;8798;51.938;4.348;2022-12-05T12:40:12;102385.88;;;7.74;80.53
17362;BME280;8798;51.938;4.348;2022-12-05T12:42:51;102384.06;;;7.74;81.00
17362;BME280;8798;51.938;4.348;2022-12-05T12:45:33;102372.59;;;7.72;81.52
17362;BME280;8798;51.938;4.348;2022-12-05T12:48:23;102362.00;;;7.71;80.75
17362;BME280;8798;51.938;4.348;2022-12-05T12:50:56;102365.50;;;7.71;80.75
17362;BME280;8798;51.938;4.348;2022-12-05T12:53:53;102366.41;;;7.72;80.30
17362;BME280;8798;51.938;4.348;2022-12-05T12:56:31;102361.91;;;7.72;80.69
17362;BME280;8798;51.938;4.348;2022-12-05T12:59:13;102349.47;;;7.71;81.20
17362;BME280;8798;51.938;4.348;2022-12-05T13:01:51;102352.06;;;7.73;80.73
17362;BME280;8798;51.938;4.348;2022-12-05T13:04:25;102353.69;;;7.75;81.36
17362;BME280;8798;51.938;4.348;2022-12-05T13:06:57;102363.44;;;7.77;81.65
17362;BME280;8798;51.938;4.348;2022-12-05T13:09:29;102364.28;;;7.77;81.10
17362;BME280;8798;51.938;4.348;2022-12-05T13:12:04;102354.53;;;7.76;80.51
17362;BME280;8798;51.938;4.348;2022-12-05T13:14:35;102355.41;;;7.77;81.40
17362;BME280;8798;51.938;4.348;2022-12-05T13:17:07;102348.34;;;7.75;80.77
17362;BME280;8798;51.938;4.348;2022-12-05T13:19:41;102335.94;;;7.74;80.74
17362;BME280;8798;51.938;4.348;2022-12-05T13:22:11;102338.59;;;7.74;81.24
17362;BME280;8798;51.938;4.348;2022-12-05T13:24:40;102333.25;;;7.74;80.66
17362;BME280;8798;51.938;4.348;2022-12-05T13:27:14;102327.91;;;7.74;80.70
17362;BME280;8798;51.938;4.348;2022-12-05T13:29:48;102330.56;;;7.74;81.03
17362;BME280;8798;51.938;4.348;2022-12-05T13:32:27;102322.44;;;7.76;81.36
17362;BME280;8798;51.938;4.348;2022-12-05T13:34:57;102319.97;;;7.73;80.50
17362;BME280;8798;51.938;4.348;2022-12-05T13:37:27;102296.09;;;7.70;81.57
17362;BME280;8798;51.938;4.348;2022-12-05T13:40:29;102302.28;;;7.70;81.52
17362;BME280;8798;51.938;4.348;2022-12-05T13:43:17;102289.13;;;7.67;81.49